Time;durP1;ratioP1;P1;durP2;ratioP2;P2;SDS_P1;SDS_P2;PMS_P1;PMS_P2;Temp;Humidity;BMP_temperature;BMP_pressure;BME280_temperature;BME280_humidity;BME280_pressure;Samples;Min_cycle;Max_cycle;Signal;HPM_P1;HPM_P2
2023/08/13 00:00:46;;;;;;;7.25;3.22;;;;;;;;;;5018406;28;20412;-63
2023/08/13 00:03:26;;;;;;;3.85;3.15;;;;;;;;;;5015163;28;20089;-63
2023/08/13 00:05:54;;;;;;;6.35;2.70;;;;;;;;;;5013535;28;20536;-63
2023/08/13 00:08:28;;;;;;;7.00;3.33;;;;;;;;;;5014011;28;20120;-63
2023/08/13 00:10:55;;;;;;;5.15;3.58;;;;;;;;;;5018667;28;20100;-63
2023/08/13 00:13:22;;;;;;;3.65;3.30;;;;;;;;;;5013611;28;20124;-63
2023/08/13 00:15:56;;;;;;;5.63;3.47;;;;;;;;;;5013407;28;20049;-58
2023/08/13 00:18:23;;;;;;;4.38;3.47;;;;;;;;;;5022345;28;20532;-58
2023/08/13 00:20:50;;;;;;;6.60;3.60;;;;;;;;;;5011964;28;20523;-58
2023/08/13 00:23:24;;;;;;;4.25;3.40;;;;;;;;;;5015111;28;20084;-57
2023/08/13 00:25:51;;;;;;;5.03;3.38;;;;;;;;;;5011518;28;20061;-63
2023/08/13 00:28:25;;;;;;;4.75;3.80;;;;;;;;;;5015368;28;20502;-69
2023/08/13 00:30:54;;;;;;;5.70;3.58;;;;;;;;;;5011684;28;20049;-69
2023/08/13 00:33:21;;;;;;;4.07;3.67;;;;;;;;;;5018106;28;20053;-69
2023/08/13 00:35:55;;;;;;;6.95;4.28;;;;;;;;;;5012283;28;22025;-69
2023/08/13 00:38:22;;;;;;;6.65;4.07;;;;;;;;;;5013510;28;20061;-68
2023/08/13 00:40:56;;;;;;;7.18;3.65;;;;;;;;;;5017424;28;20049;-69
2023/08/13 00:43:23;;;;;;;5.82;3.50;;;;;;;;;;5013458;28;20124;-60
2023/08/13 00:45:50;;;;;;;5.90;3.40;;;;;;;;;;5021234;28;20068;-59
2023/08/13 00:48:24;;;;;;;8.55;3.65;;;;;;;;;;5016188;28;20067;-59
2023/08/13 00:50:51;;;;;;;5.60;4.10;;;;;;;;;;5010640;28;21047;-59
2023/08/13 00:53:25;;;;;;;6.47;4.18;;;;;;;;;;5009722;28;22071;-49
2023/08/13 00:55:52;;;;;;;5.10;3.95;;;;;;;;;;5017608;28;20049;-63
2023/08/13 00:58:20;;;;;;;7.85;3.78;;;;;;;;;;5013097;28;20602;-61
2023/08/13 01:00:54;;;;;;;4.35;3.92;;;;;;;;;;5016799;28;20049;-60
2023/08/13 01:03:21;;;;;;;6.32;4.65;;;;;;;;;;5014450;28;20511;-60
2023/08/13 01:06:04;;;;;;;9.45;4.30;;;;;;;;;;5010181;28;20499;-60
2023/08/13 01:08:43;;;;;;;4.10;3.70;;;;;;;;;;5017104;28;20412;-59
2023/08/13 01:11:28;;;;;;;6.80;4.22;;;;;;;;;;5016846;28;20105;-60
2023/08/13 01:14:11;;;;;;;5.43;4.22;;;;;;;;;;5012033;28;20111;-54
2023/08/13 01:16:46;;;;;;;19.50;5.35;;;;;;;;;;5017082;28;20053;-52
2023/08/13 01:19:13;;;;;;;7.32;4.43;;;;;;;;;;5012312;28;20487;-56
2023/08/13 01:21:40;;;;;;;;;;;;;;;;;;5010821;28;20053;-59
2023/08/13 01:24:14;;;;;;;8.73;5.22;;;;;;;;;;5014905;28;19921;-63
2023/08/13 01:27:06;;;;;;;12.52;6.35;;;;;;;;;;5011565;28;20076;-48
2023/08/13 01:29:43;;;;;;;8.63;5.93;;;;;;;;;;5012696;28;20045;-50
2023/08/13 01:32:12;;;;;;;9.20;5.00;;;;;;;;;;5013914;28;20077;-48
2023/08/13 01:34:41;;;;;;;6.35;4.88;;;;;;;;;;5015500;28;20061;-47
2023/08/13 01:37:15;;;;;;;6.75;4.07;;;;;;;;;;5016194;28;20066;-51
2023/08/13 01:39:42;;;;;;;5.47;4.43;;;;;;;;;;5015717;28;20097;-50
2023/08/13 01:42:16;;;;;;;7.85;5.57;;;;;;;;;;5013434;28;20855;-59
2023/08/13 01:44:43;;;;;;;9.27;4.85;;;;;;;;;;5014446;28;20550;-60
2023/08/13 01:47:11;;;;;;;4.70;3.83;;;;;;;;;;5011459;28;20057;-59
2023/08/13 01:49:45;;;;;;;6.55;4.32;;;;;;;;;;5010777;28;20052;-59
2023/08/13 01:52:13;;;;;;;8.10;5.70;;;;;;;;;;5012284;28;20074;-57
2023/08/13 01:54:47;;;;;;;5.55;4.88;;;;;;;;;;5017980;28;20061;-63
2023/08/13 01:57:14;;;;;;;6.80;4.30;;;;;;;;;;5014454;28;20718;-63
2023/08/13 01:59:41;;;;;;;5.60;4.63;;;;;;;;;;5013343;28;20164;-63
2023/08/13 02:02:21;;;;;;;5.43;4.35;;;;;;;;;;5015155;28;20061;-64
2023/08/13 02:04:56;;;;;;;6.93;4.97;;;;;;;;;;5009819;28;20525;-66
2023/08/13 02:07:30;;;;;;;10.13;5.10;;;;;;;;;;5014531;28;20060;-64
2023/08/13 02:09:57;;;;;;;7.20;5.47;;;;;;;;;;5020441;28;20108;-59
2023/08/13 02:12:31;;;;;;;10.38;5.68;;;;;;;;;;5016160;28;20419;-59
2023/08/13 02:15:05;;;;;;;6.90;5.32;;;;;;;;;;5014861;28;20132;-59
2023/08/13 02:17:32;;;;;;;;;;;;;;;;;;5009433;28;20610;-59
2023/08/13 02:20:09;;;;;;;4.70;3.97;;;;;;;;;;5010315;28;19928;-52
2023/08/13 02:22:36;;;;;;;8.07;4.38;;;;;;;;;;5008275;28;20062;-60
2023/08/13 02:25:03;;;;;;;6.38;4.78;;;;;;;;;;5005200;28;20068;-59
2023/08/13 02:27:37;;;;;;;6.75;4.43;;;;;;;;;;5010603;28;20061;-59
2023/08/13 02:30:04;;;;;;;15.63;6.47;;;;;;;;;;5011734;28;20057;-59
2023/08/13 02:32:38;;;;;;;6.20;5.20;;;;;;;;;;5011303;28;20053;-59
2023/08/13 02:35:05;;;;;;;5.20;4.20;;;;;;;;;;5014813;28;20140;-59
2023/08/13 02:37:32;;;;;;;9.30;4.80;;;;;;;;;;5002626;28;20058;-59
2023/08/13 02:40:07;;;;;;;8.55;5.32;;;;;;;;;;5016532;28;20053;-59
2023/08/13 02:42:34;;;;;;;;;;;;;;;;;;5012152;28;20585;-59
2023/08/13 02:45:08;;;;;;;8.25;5.82;;;;;;;;;;5009497;28;19980;-59
2023/08/13 02:47:35;;;;;;;6.38;5.50;;;;;;;;;;5011515;28;20058;-53
2023/08/13 02:50:02;;;;;;;49.95;8.73;;;;;;;;;;5014450;28;20060;-63
2023/08/13 02:52:36;;;;;;;18.13;7.43;;;;;;;;;;5013444;28;20120;-60
2023/08/13 02:55:03;;;;;;;8.65;6.35;;;;;;;;;;5014024;28;20058;-59
2023/08/13 02:57:37;;;;;;;17.52;7.57;;;;;;;;;;5016864;28;20707;-59
2023/08/13 03:00:13;;;;;;;17.50;6.43;;;;;;;;;;5017367;28;20519;-59
2023/08/13 03:02:47;;;;;;;66.05;11.27;;;;;;;;;;5013675;28;20053;-60
2023/08/13 03:05:24;;;;;;;8.65;6.18;;;;;;;;;;5008405;28;20168;-62
2023/08/13 03:07:58;;;;;;;10.80;6.97;;;;;;;;;;5014217;28;20175;-63
2023/08/13 03:10:25;;;;;;;9.27;6.60;;;;;;;;;;5014263;28;20442;-64
2023/08/13 03:12:52;;;;;;;;;;;;;;;;;;5014593;28;20080;-64
2023/08/13 03:15:27;;;;;;;9.00;7.57;;;;;;;;;;5025386;28;20394;-71
2023/08/13 03:17:54;;;;;;;12.35;7.70;;;;;;;;;;5012911;28;20065;-56
2023/08/13 03:20:28;;;;;;;19.45;11.32;;;;;;;;;;5015945;28;20439;-51
2023/08/13 03:22:55;;;;;;;31.73;11.75;;;;;;;;;;5002603;28;20054;-55
2023/08/13 03:25:22;;;;;;;73.40;17.60;;;;;;;;;;5019058;28;20057;-52
2023/08/13 03:27:56;;;;;;;45.38;16.30;;;;;;;;;;5020372;28;20612;-52
2023/08/13 03:30:23;;;;;;;42.00;17.85;;;;;;;;;;5015803;28;20065;-51
2023/08/13 03:32:57;;;;;;;35.50;17.77;;;;;;;;;;5014793;28;20084;-51
2023/08/13 03:35:24;;;;;;;48.50;20.33;;;;;;;;;;5012167;28;20049;-69
2023/08/13 03:37:51;;;;;;;58.88;23.02;;;;;;;;;;5012984;28;20116;-70
2023/08/13 03:40:25;;;;;;;51.40;20.77;;;;;;;;;;5020478;28;20053;-70
2023/08/13 03:42:52;;;;;;;48.13;18.70;;;;;;;;;;5018164;28;20056;-70
2023/08/13 03:45:19;;;;;;;85.53;25.30;;;;;;;;;;5020314;28;20054;-59
2023/08/13 03:47:54;;;;;;;108.32;24.00;;;;;;;;;;5016903;28;20481;-59
2023/08/13 03:50:22;;;;;;;95.25;28.23;;;;;;;;;;5014764;28;20107;-60
2023/08/13 03:52:56;;;;;;;91.95;27.77;;;;;;;;;;5015933;28;20131;-60
2023/08/13 03:55:23;;;;;;;112.72;27.38;;;;;;;;;;5017832;28;20058;-59
2023/08/13 03:57:53;;;;;;;98.43;28.98;;;;;;;;;;5013789;28;20057;-59
2023/08/13 04:00:27;;;;;;;162.15;32.38;;;;;;;;;;5021771;28;20116;-60
2023/08/13 04:02:54;;;;;;;189.77;36.13;;;;;;;;;;5018422;28;20136;-56
2023/08/13 04:05:59;;;;;;;309.77;42.58;;;;;;;;;;5013419;28;20068;-56
2023/08/13 04:08:26;;;;;;;88.47;29.33;;;;;;;;;;5019343;28;20049;-54
2023/08/13 04:11:00;;;;;;;88.90;31.10;;;;;;;;;;5014843;28;20073;-56
2023/08/13 04:13:27;;;;;;;76.90;30.17;;;;;;;;;;5017635;28;20522;-58
2023/08/13 04:15:54;;;;;;;68.57;28.23;;;;;;;;;;5016609;28;20108;-56
2023/08/13 04:18:28;;;;;;;111.05;31.85;;;;;;;;;;5012049;28;20053;-57
2023/08/13 04:20:55;;;;;;;161.88;41.50;;;;;;;;;;5011018;28;20049;-58
2023/08/13 04:23:29;;;;;;;65.95;30.70;;;;;;;;;;5009365;28;20086;-57
2023/08/13 04:25:56;;;;;;;130.80;37.58;;;;;;;;;;5008801;28;20516;-54
2023/08/13 04:28:23;;;;;;;213.52;45.75;;;;;;;;;;5011086;28;20046;-56
2023/08/13 04:30:58;;;;;;;95.22;26.73;;;;;;;;;;5011746;28;20061;-50
2023/08/13 04:33:25;;;;;;;238.90;41.03;;;;;;;;;;5015062;28;20050;-53
2023/08/13 04:35:59;;;;;;;85.22;32.08;;;;;;;;;;5009738;28;20077;-51
2023/08/13 04:38:26;;;;;;;109.85;37.05;;;;;;;;;;5015360;28;20518;-55
2023/08/13 04:40:53;;;;;;;95.07;35.35;;;;;;;;;;5012441;28;20053;-72
2023/08/13 04:43:27;;;;;;;124.70;38.42;;;;;;;;;;5009095;28;20108;-53
2023/08/13 04:45:54;;;;;;;75.45;32.05;;;;;;;;;;5014991;28;20049;-59
2023/08/13 04:49:00;;;;;;;105.88;37.05;;;;;;;;;;5012693;28;20056;-59
2023/08/13 04:51:27;;;;;;;80.10;33.47;;;;;;;;;;4989735;28;20529;-59
2023/08/13 04:54:01;;;;;;;93.13;35.90;;;;;;;;;;5014981;28;20084;-59
2023/08/13 04:56:28;;;;;;;257.63;45.53;;;;;;;;;;5018111;28;20065;-59
2023/08/13 04:58:55;;;;;;;430.40;55.33;;;;;;;;;;5013992;28;20988;-59
2023/08/13 05:01:36;;;;;;;307.00;48.53;;;;;;;;;;5014887;28;20056;-57
2023/08/13 05:04:10;;;;;;;159.20;43.20;;;;;;;;;;5008599;28;20084;-56
2023/08/13 05:06:51;;;;;;;105.88;39.53;;;;;;;;;;5013102;28;20145;-57
2023/08/13 05:09:18;;;;;;;117.60;41.35;;;;;;;;;;5012506;28;20124;-59
2023/08/13 05:11:52;;;;;;;152.07;44.58;;;;;;;;;;5013115;28;20061;-59
2023/08/13 05:14:20;;;;;;;145.63;43.03;;;;;;;;;;5016516;28;20709;-58
2023/08/13 05:16:47;;;;;;;65.80;32.28;;;;;;;;;;5011572;28;20585;-58
2023/08/13 05:19:21;;;;;;;64.97;31.42;;;;;;;;;;5016063;28;20057;-58
2023/08/13 05:21:48;;;;;;;42.22;25.27;;;;;;;;;;5014135;28;20065;-59
2023/08/13 05:24:22;;;;;;;68.03;30.83;;;;;;;;;;5009544;28;20068;-57
2023/08/13 05:26:49;;;;;;;64.75;30.48;;;;;;;;;;5000781;28;20050;-58
2023/08/13 05:29:16;;;;;;;96.88;33.38;;;;;;;;;;5011941;28;20049;-59
2023/08/13 05:31:50;;;;;;;76.90;31.20;;;;;;;;;;5011606;28;20050;-59
2023/08/13 05:34:17;;;;;;;;;;;;;;;;;;5015418;28;20447;-58
2023/08/13 05:36:51;;;;;;;80.95;30.77;;;;;;;;;;5013468;28;20414;-59
2023/08/13 05:39:18;;;;;;;75.10;28.95;;;;;;;;;;5004451;28;20046;-58
2023/08/13 05:41:46;;;;;;;78.95;32.53;;;;;;;;;;5010119;28;20049;-59
2023/08/13 05:44:20;;;;;;;60.97;28.90;;;;;;;;;;5011711;28;20123;-59
2023/08/13 05:46:47;;;;;;;63.58;29.02;;;;;;;;;;5011498;28;20554;-59
2023/08/13 05:49:21;;;;;;;40.72;22.77;;;;;;;;;;5012764;28;21218;-59
2023/08/13 05:51:48;;;;;;;44.33;25.13;;;;;;;;;;5014819;28;20128;-59
2023/08/13 05:54:16;;;;;;;38.97;21.20;;;;;;;;;;5009904;28;20115;-59
2023/08/13 05:56:50;;;;;;;52.63;25.25;;;;;;;;;;5011363;28;20573;-59
2023/08/13 05:59:17;;;;;;;49.25;24.45;;;;;;;;;;5011524;28;20526;-59
2023/08/13 06:01:44;;;;;;;35.58;20.77;;;;;;;;;;5016044;28;20050;-59
2023/08/13 06:04:34;;;;;;;54.08;25.27;;;;;;;;;;5011007;28;20510;-59
2023/08/13 06:07:08;;;;;;;43.33;23.70;;;;;;;;;;5013614;28;20072;-58
2023/08/13 06:09:42;;;;;;;43.97;24.85;;;;;;;;;;5012146;28;20515;-70
2023/08/13 06:12:09;;;;;;;;;;;;;;;;;;5010950;28;20057;-70
2023/08/13 06:14:36;;;;;;;46.65;22.23;;;;;;;;;;5013036;28;19984;-70
2023/08/13 06:17:10;;;;;;;46.63;22.98;;;;;;;;;;5008419;28;20497;-71
2023/08/13 06:19:42;;;;;;;34.63;20.98;;;;;;;;;;5013774;28;20526;-69
2023/08/13 06:22:16;;;;;;;31.50;19.50;;;;;;;;;;5006202;28;20053;-70
2023/08/13 06:24:44;;;;;;;34.17;19.15;;;;;;;;;;5010827;28;20046;-59
2023/08/13 06:27:19;;;;;;;36.22;19.25;;;;;;;;;;5013249;28;20082;-59
2023/08/13 06:29:46;;;;;;;43.22;19.52;;;;;;;;;;5010166;28;20081;-60
2023/08/13 06:32:33;;;;;;;33.28;17.27;;;;;;;;;;5015582;28;20050;-59
2023/08/13 06:35:07;;;;;;;25.77;13.13;;;;;;;;;;5016792;28;20045;-58
2023/08/13 06:37:34;;;;;;;;;;;;;;;;;;5016286;28;20053;-59
2023/08/13 06:40:25;;;;;;;28.67;12.98;;;;;;;;;;5013061;28;19935;-71
2023/08/13 06:42:53;;;;;;;29.58;12.65;;;;;;;;;;5017513;28;20045;-71
2023/08/13 06:45:27;;;;;;;26.65;12.27;;;;;;;;;;5011349;28;20495;-71
2023/08/13 06:48:04;;;;;;;28.08;11.55;;;;;;;;;;5016537;28;20053;-71
2023/08/13 06:50:32;;;;;;;28.20;10.70;;;;;;;;;;5016525;28;20056;-70
2023/08/13 06:53:00;;;;;;;28.27;11.65;;;;;;;;;;5022262;28;20060;-64
2023/08/13 06:55:34;;;;;;;25.88;11.52;;;;;;;;;;5016157;28;20057;-65
2023/08/13 06:58:01;;;;;;;22.75;9.73;;;;;;;;;;5016095;28;20061;-64
2023/08/13 07:00:37;;;;;;;24.73;9.40;;;;;;;;;;5015633;28;20048;-63
2023/08/13 07:03:07;;;;;;;20.88;9.90;;;;;;;;;;5013575;28;20061;-70
2023/08/13 07:05:35;;;;;;;20.75;10.43;;;;;;;;;;5015396;28;20052;-69
2023/08/13 07:08:09;;;;;;;24.65;10.68;;;;;;;;;;5013018;28;20044;-60
2023/08/13 07:10:36;;;;;;;;;;;;;;;;;;5017468;28;20072;-59
2023/08/13 07:13:10;;;;;;;19.63;9.63;;;;;;;;;;5015099;28;20078;-58
2023/08/13 07:15:58;;;;;;;18.85;10.43;;;;;;;;;;5016945;28;20049;-59
2023/08/13 07:18:51;;;;;;;17.38;8.95;;;;;;;;;;5012869;28;20052;-59
2023/08/13 07:21:38;;;;;;;18.17;8.35;;;;;;;;;;5012163;28;20049;-56
2023/08/13 07:24:32;;;;;;;17.60;7.70;;;;;;;;;;5012736;28;21500;-70
2023/08/13 07:27:26;;;;;;;15.77;8.25;;;;;;;;;;5013148;28;20548;-59
2023/08/13 07:30:13;;;;;;;14.80;8.10;;;;;;;;;;5012178;28;20049;-59
2023/08/13 07:33:07;;;;;;;14.25;8.35;;;;;;;;;;5014450;28;20145;-59
2023/08/13 07:35:54;;;;;;;19.88;7.97;;;;;;;;;;5011586;28;20050;-60
2023/08/13 07:38:48;;;;;;;15.20;7.45;;;;;;;;;;5014415;28;20050;-60
2023/08/13 07:41:35;;;;;;;16.13;7.70;;;;;;;;;;5016697;28;20042;-59
2023/08/13 07:44:29;;;;;;;19.77;8.13;;;;;;;;;;5015222;28;20065;-70
2023/08/13 07:47:23;;;;;;;14.27;7.10;;;;;;;;;;5016972;28;20054;-69
2023/08/13 07:50:13;;;;;;;;;;;;;;;;;;5015912;28;20124;-69
2023/08/13 07:53:06;;;;;;;13.95;6.38;;;;;;;;;;5015661;28;19929;-70
2023/08/13 07:55:53;;;;;;;12.45;5.47;;;;;;;;;;5011447;28;20042;-69
2023/08/13 07:58:48;;;;;;;12.27;6.10;;;;;;;;;;5013809;28;20049;-55
2023/08/13 08:01:34;;;;;;;10.13;5.90;;;;;;;;;;5015537;28;20417;-59
2023/08/13 08:04:35;;;;;;;14.40;6.35;;;;;;;;;;5019798;28;20278;-59
2023/08/13 08:07:22;;;;;;;9.55;4.95;;;;;;;;;;5017725;28;20119;-59
2023/08/13 08:10:16;;;;;;;9.27;5.70;;;;;;;;;;5004833;28;20597;-59
2023/08/13 08:13:03;;;;;;;7.85;4.07;;;;;;;;;;5014959;28;20058;-59
2023/08/13 08:15:59;;;;;;;17.10;4.82;;;;;;;;;;5010324;28;20152;-59
2023/08/13 08:18:46;;;;;;;11.50;4.85;;;;;;;;;;5013506;28;20443;-49
2023/08/13 08:21:40;;;;;;;6.80;3.60;;;;;;;;;;5016619;28;20057;-68
2023/08/13 08:24:34;;;;;;;6.50;3.50;;;;;;;;;;5008716;28;20065;-69
2023/08/13 08:27:21;;;;;;;4.68;3.45;;;;;;;;;;5008950;28;20046;-68
2023/08/13 08:30:15;;;;;;;6.50;4.03;;;;;;;;;;5015557;28;20053;-68
2023/08/13 08:33:02;;;;;;;7.07;4.10;;;;;;;;;;5014603;28;20518;-68
2023/08/13 08:35:56;;;;;;;4.22;3.53;;;;;;;;;;4999916;28;20602;-65
2023/08/13 08:38:43;;;;;;;7.03;3.63;;;;;;;;;;5005339;28;20057;-64
2023/08/13 08:41:39;;;;;;;10.23;3.70;;;;;;;;;;5013600;28;20761;-65
2023/08/13 08:44:29;;;;;;;7.82;3.67;;;;;;;;;;5010471;28;20517;-65
2023/08/13 08:47:23;;;;;;;10.55;6.18;;;;;;;;;;5008664;28;20112;-65
2023/08/13 08:50:17;;;;;;;8.45;5.07;;;;;;;;;;5013076;28;20045;-64
2023/08/13 08:53:07;;;;;;;9.50;5.38;;;;;;;;;;5012495;28;20054;-65
2023/08/13 08:56:01;;;;;;;10.68;4.95;;;;;;;;;;5005864;28;20136;-65
2023/08/13 08:58:55;;;;;;;10.68;4.28;;;;;;;;;;5009662;28;20451;-64
2023/08/13 09:01:49;;;;;;;8.57;4.93;;;;;;;;;;5010665;28;20621;-63
2023/08/13 09:04:43;;;;;;;7.65;4.50;;;;;;;;;;5008438;28;20136;-64
2023/08/13 09:07:44;;;;;;;10.40;4.45;;;;;;;;;;5013063;28;20084;-64
2023/08/13 09:10:42;;;;;;;10.98;4.65;;;;;;;;;;5010222;28;20045;-64
2023/08/13 09:13:29;;;;;;;5.63;3.60;;;;;;;;;;5011356;28;20605;-70
2023/08/13 09:16:23;;;;;;;5.78;4.15;;;;;;;;;;5009388;28;20068;-59
2023/08/13 09:19:18;;;;;;;8.63;4.28;;;;;;;;;;5002657;28;20764;-60
2023/08/13 09:22:07;;;;;;;8.40;4.47;;;;;;;;;;5009392;28;20054;-60
2023/08/13 09:25:01;;;;;;;7.13;4.15;;;;;;;;;;5009273;28;20432;-60
2023/08/13 09:27:48;;;;;;;;;;;;;;;;;;5009878;28;20498;-60
2023/08/13 09:30:41;;;;;;;6.93;3.50;;;;;;;;;;5014107;28;19929;-68
2023/08/13 09:33:29;;;;;;;6.95;3.83;;;;;;;;;;5010390;28;20054;-68
2023/08/13 09:36:22;;;;;;;8.18;3.90;;;;;;;;;;5001872;28;20668;-68
2023/08/13 09:39:17;;;;;;;7.65;3.85;;;;;;;;;;5013894;28;20073;-68
2023/08/13 09:42:05;;;;;;;8.05;3.53;;;;;;;;;;5012086;28;20050;-66
2023/08/13 09:45:09;;;;;;;7.85;3.30;;;;;;;;;;5005185;28;20107;-59
2023/08/13 09:47:59;;;;;;;8.02;3.50;;;;;;;;;;5010865;28;20483;-61
2023/08/13 09:50:55;;;;;;;7.50;3.63;;;;;;;;;;5015015;28;20121;-60
2023/08/13 09:54:04;;;;;;;7.68;3.40;;;;;;;;;;5010741;28;20065;-60
2023/08/13 09:57:03;;;;;;;7.05;3.10;;;;;;;;;;5013220;28;20136;-60
2023/08/13 09:59:51;;;;;;;11.20;3.38;;;;;;;;;;5017252;28;20141;-68
2023/08/13 10:02:47;;;;;;;9.20;3.40;;;;;;;;;;5013444;28;20063;-67
2023/08/13 10:05:44;;;;;;;12.20;3.92;;;;;;;;;;5012849;28;20058;-67
2023/08/13 10:08:38;;;;;;;12.10;4.13;;;;;;;;;;5001078;28;20127;-58
2023/08/13 10:11:32;;;;;;;13.45;4.00;;;;;;;;;;5010257;28;20054;-60
2023/08/13 10:14:19;;;;;;;11.90;3.53;;;;;;;;;;5009226;28;20148;-58
2023/08/13 10:17:16;;;;;;;14.82;3.60;;;;;;;;;;5013649;28;20515;-59
2023/08/13 10:20:05;;;;;;;20.67;3.88;;;;;;;;;;5011440;28;20060;-59
2023/08/13 10:23:01;;;;;;;17.75;3.63;;;;;;;;;;5013450;28;20046;-58
2023/08/13 10:25:55;;;;;;;13.50;3.95;;;;;;;;;;5014798;28;20482;-59
2023/08/13 10:28:40;;;;;;;7.25;3.33;;;;;;;;;;5017024;28;20489;-58
2023/08/13 10:31:34;;;;;;;14.07;3.25;;;;;;;;;;5014791;28;20052;-58
2023/08/13 10:34:41;;;;;;;11.95;3.28;;;;;;;;;;5016322;28;20060;-58
2023/08/13 10:37:36;;;;;;;12.95;3.22;;;;;;;;;;5013790;28;20058;-59
2023/08/13 10:40:30;;;;;;;12.07;3.72;;;;;;;;;;5010297;28;20055;-52
2023/08/13 10:43:20;;;;;;;17.48;3.45;;;;;;;;;;5017941;28;20046;-54
2023/08/13 10:46:14;;;;;;;16.10;3.60;;;;;;;;;;5015297;28;20112;-51
2023/08/13 10:49:03;;;;;;;18.60;3.65;;;;;;;;;;5017099;28;20057;-51
2023/08/13 10:52:03;;;;;;;16.08;3.92;;;;;;;;;;5017248;28;20054;-55
2023/08/13 10:54:47;;;;;;;13.05;3.50;;;;;;;;;;5012576;28;20141;-55
2023/08/13 10:57:48;;;;;;;12.35;3.60;;;;;;;;;;5021140;28;20164;-59
2023/08/13 11:00:42;;;;;;;9.40;3.80;;;;;;;;;;5011279;28;20049;-58
2023/08/13 11:03:42;;;;;;;16.77;3.83;;;;;;;;;;5016395;28;20045;-58
2023/08/13 11:06:36;;;;;;;12.63;4.18;;;;;;;;;;5015034;28;20613;-53
2023/08/13 11:09:30;;;;;;;12.55;3.78;;;;;;;;;;5013468;28;20092;-59
2023/08/13 11:12:18;;;;;;;14.55;4.00;;;;;;;;;;5016829;28;20104;-59
2023/08/13 11:15:11;;;;;;;11.35;4.00;;;;;;;;;;5006663;28;20077;-59
2023/08/13 11:17:58;;;;;;;16.98;4.22;;;;;;;;;;5014599;28;20054;-60
2023/08/13 11:20:52;;;;;;;16.10;4.45;;;;;;;;;;5021844;28;20049;-59
2023/08/13 11:23:39;;;;;;;17.65;4.53;;;;;;;;;;5017598;28;20069;-58
2023/08/13 11:26:34;;;;;;;16.23;5.28;;;;;;;;;;5021553;28;20054;-66
2023/08/13 11:29:24;;;;;;;15.20;4.10;;;;;;;;;;5020481;28;20504;-65
2023/08/13 11:32:18;;;;;;;17.10;5.25;;;;;;;;;;5018673;28;20510;-65
2023/08/13 11:35:12;;;;;;;12.27;4.32;;;;;;;;;;5016222;28;20080;-58
2023/08/13 11:38:06;;;;;;;12.88;4.03;;;;;;;;;;5015264;28;20060;-56
2023/08/13 11:41:10;;;;;;;13.77;4.38;;;;;;;;;;5010812;28;20054;-56
2023/08/13 11:44:04;;;;;;;13.70;4.20;;;;;;;;;;5016838;28;20877;-56
2023/08/13 11:46:55;;;;;;;14.32;4.22;;;;;;;;;;5014799;28;20058;-56
2023/08/13 11:49:48;;;;;;;15.65;4.15;;;;;;;;;;5016140;28;20092;-56
2023/08/13 11:52:35;;;;;;;21.02;4.57;;;;;;;;;;5014468;28;20474;-54
2023/08/13 11:55:29;;;;;;;14.82;4.40;;;;;;;;;;5019990;28;20107;-53
2023/08/13 11:58:17;;;;;;;13.55;3.83;;;;;;;;;;5016792;28;20121;-54
2023/08/13 12:01:12;;;;;;;10.90;3.97;;;;;;;;;;5017895;28;20132;-52
2023/08/13 12:04:02;;;;;;;15.80;4.15;;;;;;;;;;5009675;28;20045;-61
2023/08/13 12:07:14;;;;;;;14.65;4.20;;;;;;;;;;5006942;28;20060;-58
2023/08/13 12:10:01;;;;;;;15.40;4.28;;;;;;;;;;4999745;28;20049;-59
2023/08/13 12:12:55;;;;;;;14.88;4.57;;;;;;;;;;4999574;28;20046;-59
2023/08/13 12:15:42;;;;;;;14.80;4.38;;;;;;;;;;5001061;28;20140;-58
2023/08/13 12:18:16;;;;;;;16.52;4.20;;;;;;;;;;4997301;28;20062;-59
2023/08/13 12:20:43;;;;;;;;;;;;;;;;;;5004522;28;20050;-64
2023/08/13 12:23:11;;;;;;;16.55;4.53;;;;;;;;;;5003912;28;19925;-59
2023/08/13 12:25:45;;;;;;;16.00;4.90;;;;;;;;;;5002200;28;20050;-58
2023/08/13 12:28:14;;;;;;;13.70;4.88;;;;;;;;;;5000097;28;20563;-58
2023/08/13 12:30:48;;;;;;;17.45;4.82;;;;;;;;;;5003001;28;20057;-67
2023/08/13 12:33:15;;;;;;;17.10;4.57;;;;;;;;;;5003741;28;20042;-55
2023/08/13 12:35:42;;;;;;;15.20;4.72;;;;;;;;;;5002892;28;20050;-54
2023/08/13 12:38:16;;;;;;;19.15;4.97;;;;;;;;;;5003575;28;20499;-52
2023/08/13 12:40:43;;;;;;;13.85;4.22;;;;;;;;;;5000688;28;20124;-54
2023/08/13 12:43:17;;;;;;;14.75;4.50;;;;;;;;;;4999908;28;20112;-53
2023/08/13 12:45:51;;;;;;;19.05;4.80;;;;;;;;;;4996686;28;20049;-52
2023/08/13 12:48:18;;;;;;;14.65;4.30;;;;;;;;;;5002382;28;20112;-52
2023/08/13 12:50:45;;;;;;;17.33;4.28;;;;;;;;;;4995633;28;20601;-56
2023/08/13 12:53:29;;;;;;;15.57;4.40;;;;;;;;;;4999374;28;20062;-53
2023/08/13 12:56:04;;;;;;;20.98;5.30;;;;;;;;;;4993285;28;20070;-56
2023/08/13 12:58:41;;;;;;;13.65;4.32;;;;;;;;;;4998922;28;20436;-55
2023/08/13 13:01:08;;;;;;;;;;;;;;;;;;4999798;28;20056;-65
2023/08/13 13:03:35;;;;;;;19.80;4.55;;;;;;;;;;4993970;28;20632;-61
2023/08/13 13:06:16;;;;;;;15.98;4.85;;;;;;;;;;5012994;28;20712;-61
2023/08/13 13:08:50;;;;;;;19.23;4.72;;;;;;;;;;5010708;28;20057;-61
2023/08/13 13:11:18;;;;;;;12.38;4.60;;;;;;;;;;5013735;28;20593;-61
2023/08/13 13:13:45;;;;;;;16.92;4.95;;;;;;;;;;5015536;28;20058;-61
2023/08/13 13:16:19;;;;;;;14.68;4.60;;;;;;;;;;5010858;28;20180;-60
2023/08/13 13:18:46;;;;;;;;;;;;;;;;;;5008941;28;20060;-58
2023/08/13 13:21:20;;;;;;;11.90;4.15;;;;;;;;;;5009088;28;19929;-58
2023/08/13 13:23:47;;;;;;;13.50;4.30;;;;;;;;;;5011330;28;20053;-59
2023/08/13 13:26:14;;;;;;;13.73;3.85;;;;;;;;;;5015070;28;20057;-58
2023/08/13 13:28:48;;;;;;;15.35;4.47;;;;;;;;;;5012079;28;20061;-51
2023/08/13 13:31:15;;;;;;;15.05;4.63;;;;;;;;;;5006537;28;20593;-58
2023/08/13 13:33:49;;;;;;;16.73;4.65;;;;;;;;;;5011732;28;20072;-58
2023/08/13 13:36:16;;;;;;;19.85;5.10;;;;;;;;;;5016958;28;20058;-58
2023/08/13 13:38:44;;;;;;;13.73;4.30;;;;;;;;;;5011334;28;20408;-58
2023/08/13 13:41:17;;;;;;;20.00;5.00;;;;;;;;;;5010597;28;20058;-58
2023/08/13 13:43:44;;;;;;;15.30;4.65;;;;;;;;;;5009233;28;20049;-59
2023/08/13 13:46:18;;;;;;;19.30;4.50;;;;;;;;;;5012722;28;20618;-67
2023/08/13 13:48:45;;;;;;;16.27;4.30;;;;;;;;;;5012873;28;20063;-68
2023/08/13 13:51:13;;;;;;;14.80;4.95;;;;;;;;;;5007659;28;20108;-69
2023/08/13 13:53:48;;;;;;;18.75;5.40;;;;;;;;;;5006821;28;20061;-69
2023/08/13 13:56:15;;;;;;;17.23;4.93;;;;;;;;;;5015162;28;20049;-49
2023/08/13 13:58:49;;;;;;;21.92;4.78;;;;;;;;;;5005865;28;20859;-66
2023/08/13 14:01:16;;;;;;;14.40;4.78;;;;;;;;;;5001987;28;20053;-55
2023/08/13 14:03:43;;;;;;;;;;;;;;;;;;5016393;28;20116;-56
2023/08/13 14:06:30;;;;;;;17.52;5.00;;;;;;;;;;5009840;28;19928;-55
2023/08/13 14:09:04;;;;;;;25.77;5.45;;;;;;;;;;5010371;28;21378;-53
2023/08/13 14:11:38;;;;;;;17.05;4.68;;;;;;;;;;5009785;28;20062;-53
2023/08/13 14:14:06;;;;;;;16.05;4.50;;;;;;;;;;5003720;28;20430;-54
2023/08/13 14:16:33;;;;;;;16.27;4.63;;;;;;;;;;5006849;28;20705;-68
2023/08/13 14:19:11;;;;;;;14.55;4.57;;;;;;;;;;5012004;28;20563;-68
2023/08/13 14:21:38;;;;;;;15.40;4.80;;;;;;;;;;5015805;28;20790;-68
2023/08/13 14:24:05;;;;;;;15.90;4.80;;;;;;;;;;5011596;28;20065;-67
2023/08/13 14:26:39;;;;;;;20.60;4.68;;;;;;;;;;5011477;28;20550;-56
2023/08/13 14:29:06;;;;;;;14.90;4.63;;;;;;;;;;5014913;28;20417;-68
2023/08/13 14:31:40;;;;;;;13.73;4.60;;;;;;;;;;5015569;28;20081;-68
2023/08/13 14:34:07;;;;;;;;;;;;;;;;;;5015420;28;20139;-68
2023/08/13 14:36:35;;;;;;;17.48;4.95;;;;;;;;;;5014112;28;19983;-68
2023/08/13 14:39:08;;;;;;;14.10;4.45;;;;;;;;;;5021596;28;20057;-68
2023/08/13 14:41:35;;;;;;;16.02;4.88;;;;;;;;;;5015614;28;20587;-68
2023/08/13 14:44:03;;;;;;;17.08;4.68;;;;;;;;;;5012689;28;20531;-61
2023/08/13 14:46:44;;;;;;;14.55;4.45;;;;;;;;;;5003240;28;20108;-61
2023/08/13 14:49:18;;;;;;;16.50;5.03;;;;;;;;;;5009149;28;20049;-61
2023/08/13 14:51:45;;;;;;;14.43;4.50;;;;;;;;;;5010200;28;20121;-61
2023/08/13 14:54:13;;;;;;;;;;;;;;;;;;5010030;28;20064;-55
2023/08/13 14:56:46;;;;;;;15.40;4.40;;;;;;;;;;5005574;28;20986;-57
2023/08/13 14:59:14;;;;;;;13.45;4.72;;;;;;;;;;5010379;28;20084;-59
2023/08/13 15:01:49;;;;;;;17.58;4.45;;;;;;;;;;5007605;28;20046;-58
2023/08/13 15:04:16;;;;;;;14.65;4.78;;;;;;;;;;5016227;28;20059;-58
2023/08/13 15:06:44;;;;;;;24.25;5.20;;;;;;;;;;5015024;28;20337;-58
2023/08/13 15:09:18;;;;;;;19.65;5.13;;;;;;;;;;5010522;28;20053;-57
2023/08/13 15:11:45;;;;;;;18.23;5.15;;;;;;;;;;5018751;28;20173;-58
2023/08/13 15:14:19;;;;;;;18.90;4.75;;;;;;;;;;5015005;28;20104;-58
2023/08/13 15:16:46;;;;;;;18.38;5.50;;;;;;;;;;5020827;28;20054;-58
2023/08/13 15:19:14;;;;;;;15.23;4.25;;;;;;;;;;5013065;28;20560;-57
2023/08/13 15:21:47;;;;;;;16.02;5.28;;;;;;;;;;5019222;28;20539;-66
2023/08/13 15:24:14;;;;;;;20.95;5.50;;;;;;;;;;5021922;28;20064;-68
2023/08/13 15:26:48;;;;;;;16.83;5.05;;;;;;;;;;5018467;28;20455;-65
2023/08/13 15:29:15;;;;;;;18.67;5.75;;;;;;;;;;5013397;28;20383;-65
2023/08/13 15:31:43;;;;;;;20.55;4.82;;;;;;;;;;5014497;28;20507;-64
2023/08/13 15:34:17;;;;;;;18.35;5.35;;;;;;;;;;5020425;28;20115;-66
2023/08/13 15:36:44;;;;;;;15.45;5.28;;;;;;;;;;5020987;28;20073;-65